Amboy, Minnesota
Current Conditions -  °F | °C
As of 1:15 AM on Thursday 18 Dec 2014 (Local Time) from KJYG Reporting Station
Overcast Overcast  
Wind Chill: 12°   Ceiling: 1300
Heat Index: 12°   Visibility: 10mi
Dew Point: 10°   Wind: 0mph
Humidity: 92%   Direction: NA
Pressure: 30.31"   Gusts: NA
Location:  43.89°N, 94.16°W
Report Text: KJYG 180715Z AUTO 00000KT 10SM OVC013 M11/M12 A3031 RMK AO2
Loading
Personal Weather Stations






























Interactive Weather Map New forecast layout! Learn more

10-Day Weather Forecast

Advertisements
Track Severe Weather on mobile